Date,TemperatureHighF,TemperatureAvgF,TemperatureLowF,DewpointHighF,DewpointAvgF,DewpointLowF,HumidityHigh,HumidityAvg,HumidityLow,PressureMaxIn,PressureMinIn,WindSpeedMaxMPH,WindSpeedAvgMPH,GustSpeedMaxMPH,PrecipitationSumIn
2013-8-1,79,72,64,67,65,62,97,81,59,29.97,29.93,3,1,8,0.18
2013-8-2,77,64,57,64,59,56,98,87,56,30.01,29.96,1,0,4,0.01
2013-8-3,79,70,63,69,64,59,97,82,58,30.02,29.97,4,1,7,0.20
2013-8-4,74,66,58,61,58,55,96,76,54,30.14,30.02,3,1,7,0.01
2013-8-5,76,64,53,61,56,52,98,78,50,30.14,30.01,4,0,5,0.00
2013-8-6,81,71,61,64,60,57,88,70,53,30.02,29.95,6,1,11,0.00
2013-8-7,85,75,66,75,69,62,93,82,69,29.96,29.88,4,1,8,0.13
2013-8-8,82,74,68,74,71,67,97,92,78,29.98,29.92,3,1,7,0.71
2013-8-9,77,70,65,70,66,62,98,89,62,30.05,29.91,2,0,4,0.64
2013-8-10,82,72,64,69,66,63,97,81,57,30.12,30.05,2,0,5,0.07
2013-8-11,83,72,62,72,66,61,95,82,64,30.12,30.04,3,1,5,0.00
2013-8-12,83,72,62,70,66,61,98,81,58,30.09,29.89,4,1,9,0.00
2013-8-13,74,68,66,67,63,-100,95,86,67,29.94,29.84,5,1,7,0.00
2013-8-14,67,60,53,55,48,-100,96,72,61,30.17,30.14,2,1,5,0.00
2013-8-15,73,57,48,56,44,-100,98,76,47,30.20,30.11,2,0,4,0.00
2013-8-16,76,64,54,59,53,-100,92,72,50,30.18,30.13,2,0,6,0.00
2013-8-17,81,69,60,65,59,55,85,72,52,30.23,30.16,2,0,6,0.00
2013-8-18,78,67,59,67,61,-100,95,83,67,30.21,30.13,3,1,9,0.00
2013-8-19,82,68,62,68,56,-100,97,78,45,30.16,30.08,1,0,3,0.00
2013-8-20,84,70,59,70,62,-100,98,79,52,30.21,30.11,3,0,7,0.00
2013-8-21,84,71,62,70,65,61,98,82,60,30.20,30.08,4,1,8,0.00
2013-8-22,84,73,64,72,67,62,96,82,64,30.13,30.02,4,1,8,0.00
2013-8-23,83,73,64,71,66,59,96,80,56,30.18,30.04,3,1,5,0.10
2013-8-24,83,70,59,63,58,54,85,69,46,30.30,30.18,2,0,6,0.00
2013-8-25,86,71,58,65,58,-100,95,69,40,30.36,30.24,3,1,8,0.00
2013-8-26,87,74,61,72,65,58,92,74,51,30.27,30.06,3,1,6,0.00
2013-8-27,83,74,69,74,70,67,94,88,75,30.07,30.00,2,0,6,0.00
2013-8-28,84,80,71,75,73,69,94,80,72,29.99,29.89,2,1,6,0.04
2013-8-29,84,74,69,72,69,68,97,88,61,30.07,29.98,3,0,5,0.02
2013-8-31,88,79,71,76,73,69,96,83,65,29.86,29.80,2,0,6,0.59